Time;durP1;ratioP1;P1;durP2;ratioP2;P2;SDS_P1;SDS_P2;PMS_P1;PMS_P2;Temp;Humidity;BMP_temperature;BMP_pressure;BME280_temperature;BME280_humidity;BME280_pressure;Samples;Min_cycle;Max_cycle;Signal;HPM_P1;HPM_P2
2022/08/30 00:02:46;;;;;;;930.83;844.88;;;21.00;99.90;;;;;;4995074;28;20272;-81
2022/08/30 00:05:16;;;;;;;923.78;838.03;;;21.00;99.90;;;;;;4998673;28;20244;-82
2022/08/30 00:07:43;;;;;;;941.45;855.28;;;20.90;99.90;;;;;;4990550;28;20296;-81
2022/08/30 00:10:11;;;;;;;931.63;845.42;;;20.90;99.90;;;;;;5004802;28;20634;-81
2022/08/30 00:12:39;;;;;;;924.70;838.92;;;20.90;99.90;;;;;;5007524;28;20208;-81
2022/08/30 00:15:08;;;;;;;940.10;853.88;;;20.90;99.90;;;;;;4997871;28;20198;-81
2022/08/30 00:17:35;;;;;;;927.55;841.72;;;20.90;99.90;;;;;;4997240;28;20561;-82
2022/08/30 00:20:04;;;;;;;917.78;832.15;;;20.90;99.90;;;;;;4996724;28;20283;-81
2022/08/30 00:22:31;;;;;;;939.50;853.30;;;20.90;99.90;;;;;;5000714;28;20643;-81
2022/08/30 00:24:59;;;;;;;929.58;843.58;;;20.90;99.90;;;;;;4993632;28;20316;-81
2022/08/30 00:27:26;;;;;;;930.90;844.95;;;20.90;99.90;;;;;;4996760;28;20189;-81
2022/08/30 00:29:53;;;;;;;930.03;844.25;;;20.90;99.90;;;;;;4984630;28;20840;-82
2022/08/30 00:32:20;;;;;;;941.38;854.95;;;20.80;99.90;;;;;;5009482;28;20208;-82
2022/08/30 00:34:47;;;;;;;937.35;851.08;;;20.80;99.90;;;;;;4989525;28;20288;-82
2022/08/30 00:37:16;;;;;;;936.17;850.28;;;20.80;99.90;;;;;;4996542;28;20213;-81
2022/08/30 00:39:42;;;;;;;926.70;840.92;;;20.80;99.90;;;;;;5004432;28;20206;-81
2022/08/30 00:42:09;;;;;;;934.55;848.38;;;20.80;99.90;;;;;;5003624;28;20205;-82
2022/08/30 00:44:36;;;;;;;938.10;851.97;;;20.80;99.90;;;;;;4996498;28;20201;-82
2022/08/30 00:47:04;;;;;;;931.20;845.40;;;20.80;99.90;;;;;;4998289;28;20213;-82
2022/08/30 00:49:32;;;;;;;918.17;832.45;;;20.80;99.90;;;;;;4999637;28;20288;-82
2022/08/30 00:51:59;;;;;;;923.00;837.20;;;20.70;99.90;;;;;;4983163;28;20205;-82
2022/08/30 00:54:28;;;;;;;917.30;831.70;;;20.70;99.90;;;;;;4993477;28;20201;-82
2022/08/30 00:56:55;;;;;;;932.45;846.15;;;20.70;99.90;;;;;;4997117;28;20231;-82
2022/08/30 00:59:23;;;;;;;932.85;846.70;;;20.70;99.90;;;;;;4994175;28;20259;-82
2022/08/30 01:01:50;;;;;;;921.22;835.75;;;20.70;99.90;;;;;;4995087;28;20292;-82
2022/08/30 01:04:25;;;;;;;927.05;841.20;;;20.70;99.90;;;;;;5001404;28;20232;-82
2022/08/30 01:06:52;;;;;;;923.00;837.33;;;20.70;99.90;;;;;;4989177;28;20200;-82
2022/08/30 01:09:19;;;;;;;936.42;850.17;;;20.70;99.90;;;;;;4996903;28;20220;-81
2022/08/30 01:11:48;;;;;;;917.22;831.63;;;20.70;99.90;;;;;;4988172;28;20197;-81
2022/08/30 01:14:16;;;;;;;929.63;843.58;;;20.70;99.90;;;;;;4989028;28;20197;-82
2022/08/30 01:16:45;;;;;;;927.83;842.03;;;20.70;99.90;;;;;;4991367;28;20279;-82
2022/08/30 01:19:21;;;;;;;921.25;835.47;;;20.70;99.90;;;;;;4987951;28;20561;-81
2022/08/30 01:21:50;;;;;;;921.97;836.20;;;20.60;99.90;;;;;;4990257;28;20203;-82
2022/08/30 01:24:19;;;;;;;907.42;822.25;;;20.60;99.90;;;;;;4989715;28;20210;-81
2022/08/30 01:26:46;;;;;;;925.47;839.72;;;20.60;99.90;;;;;;4992272;28;20212;-81
2022/08/30 01:29:21;;;;;;;915.83;830.33;;;20.60;99.90;;;;;;4993159;28;20537;-82
2022/08/30 01:31:48;;;;;;;912.97;827.55;;;20.60;99.90;;;;;;4994774;28;20219;-81
2022/08/30 01:34:15;;;;;;;927.72;841.78;;;20.60;99.90;;;;;;4990725;28;20197;-81
2022/08/30 01:36:44;;;;;;;910.67;825.28;;;20.60;99.90;;;;;;4991681;28;20221;-82
2022/08/30 01:39:12;;;;;;;932.92;847.05;;;20.60;99.90;;;;;;4991305;28;20205;-82
2022/08/30 01:41:42;;;;;;;906.05;820.92;;;20.50;99.90;;;;;;4991939;28;20280;-82
2022/08/30 01:44:11;;;;;;;915.45;829.88;;;20.50;99.90;;;;;;5004835;28;20198;-82
2022/08/30 01:46:40;;;;;;;917.58;832.28;;;20.50;99.90;;;;;;5009733;28;20207;-81
2022/08/30 01:49:11;;;;;;;918.20;832.55;;;20.50;99.90;;;;;;5005186;28;20194;-81
2022/08/30 01:51:39;;;;;;;909.30;823.97;;;20.50;99.90;;;;;;4988559;28;20219;-82
2022/08/30 01:54:06;;;;;;;921.38;835.53;;;20.50;99.90;;;;;;5005950;28;20197;-81
2022/08/30 01:56:33;;;;;;;925.13;839.03;;;20.50;99.90;;;;;;4999635;28;20699;-81
2022/08/30 01:59:02;;;;;;;921.58;835.88;;;20.50;99.90;;;;;;5004413;28;20204;-82
2022/08/30 02:01:29;;;;;;;906.15;820.90;;;20.50;99.90;;;;;;4997306;28;20215;-81
2022/08/30 02:03:57;;;;;;;903.72;818.65;;;20.50;99.90;;;;;;4996249;28;20247;-82
2022/08/30 02:06:24;;;;;;;909.50;823.95;;;20.50;99.90;;;;;;4992230;28;20669;-81
2022/08/30 02:08:51;;;;;;;915.42;829.85;;;20.40;99.90;;;;;;5002897;28;20263;-81
2022/08/30 02:11:18;;;;;;;919.05;833.35;;;20.40;99.90;;;;;;4998533;28;20201;-82
2022/08/30 02:13:46;;;;;;;894.90;809.78;;;20.40;99.90;;;;;;4991809;28;20197;-81
2022/08/30 02:16:17;;;;;;;917.95;832.45;;;20.40;99.90;;;;;;4998541;28;20204;-81
2022/08/30 02:18:44;;;;;;;920.30;834.50;;;20.40;99.90;;;;;;5018331;28;20276;-81
2022/08/30 02:21:12;;;;;;;907.47;822.17;;;20.40;99.90;;;;;;5000344;28;20560;-81
2022/08/30 02:23:39;;;;;;;902.15;816.97;;;20.30;99.90;;;;;;4996625;28;20204;-81
2022/08/30 02:26:06;;;;;;;894.78;809.88;;;20.40;99.90;;;;;;4994953;28;20201;-82
2022/08/30 02:28:33;;;;;;;905.13;819.95;;;20.30;99.90;;;;;;4992404;28;20209;-81
2022/08/30 02:31:00;;;;;;;889.65;804.88;;;20.30;99.90;;;;;;5006824;28;20261;-81
2022/08/30 02:33:28;;;;;;;906.38;821.05;;;20.30;99.90;;;;;;5005253;28;20205;-81
2022/08/30 02:35:55;;;;;;;914.13;828.53;;;20.30;99.90;;;;;;5007041;28;20288;-82
2022/08/30 02:38:23;;;;;;;903.92;818.72;;;20.30;99.90;;;;;;5007678;28;20225;-81
2022/08/30 02:40:50;;;;;;;905.88;820.58;;;20.30;99.90;;;;;;4996983;28;20201;-82
2022/08/30 02:43:17;;;;;;;895.45;810.20;;;20.30;99.90;;;;;;4992609;28;20197;-82
2022/08/30 02:45:44;;;;;;;904.72;819.42;;;20.30;99.90;;;;;;4982722;28;20208;-81
2022/08/30 02:48:10;;;;;;;900.47;815.20;;;20.30;99.90;;;;;;4984240;28;20193;-80
2022/08/30 02:50:41;;;;;;;899.53;814.45;;;20.30;99.90;;;;;;4987952;28;20205;-81
2022/08/30 02:53:08;;;;;;;912.75;827.33;;;20.30;99.90;;;;;;4991535;28;20565;-81
2022/08/30 02:55:34;;;;;;;906.92;821.63;;;20.20;99.90;;;;;;4990441;28;20190;-82
2022/08/30 02:58:01;;;;;;;899.17;814.10;;;20.20;99.90;;;;;;4991581;28;20231;-82
2022/08/30 03:00:28;;;;;;;889.22;804.35;;;20.20;99.90;;;;;;4990185;28;22176;-82
2022/08/30 03:02:55;;;;;;;896.33;811.40;;;20.20;99.90;;;;;;4988903;28;20264;-82
2022/08/30 03:05:22;;;;;;;896.92;811.92;;;20.20;99.90;;;;;;4996400;28;20667;-81
2022/08/30 03:07:50;;;;;;;899.17;814.00;;;20.20;99.90;;;;;;4993700;28;20201;-82
2022/08/30 03:10:17;;;;;;;889.95;805.08;;;20.20;99.90;;;;;;4994564;28;20196;-82
2022/08/30 03:12:44;;;;;;;901.78;816.63;;;20.10;99.90;;;;;;4989600;28;21049;-81
2022/08/30 03:15:12;;;;;;;885.72;800.97;;;20.10;99.90;;;;;;4994253;28;20197;-82
2022/08/30 03:17:39;;;;;;;887.15;802.53;;;20.10;99.90;;;;;;4996844;28;20213;-82
2022/08/30 03:20:08;;;;;;;900.47;815.38;;;20.10;99.90;;;;;;4992853;28;20189;-82
2022/08/30 03:22:35;;;;;;;894.78;809.72;;;20.10;99.90;;;;;;5013570;28;20211;-81
2022/08/30 03:25:04;;;;;;;913.58;828.05;;;20.10;99.90;;;;;;5003568;28;20193;-82
2022/08/30 03:27:31;;;;;;;895.85;810.83;;;20.10;99.90;;;;;;5006341;28;20200;-81
2022/08/30 03:29:58;;;;;;;885.05;800.45;;;20.10;99.90;;;;;;4991377;28;20208;-81
2022/08/30 03:32:24;;;;;;;885.88;801.22;;;20.10;99.90;;;;;;4990939;28;20677;-82
2022/08/30 03:34:51;;;;;;;900.92;815.75;;;20.10;99.90;;;;;;4991410;28;20216;-82
2022/08/30 03:37:18;;;;;;;900.78;815.88;;;20.10;99.90;;;;;;4989309;28;20220;-82
2022/08/30 03:39:45;;;;;;;897.00;811.92;;;20.00;99.90;;;;;;4983734;28;20583;-82
2022/08/30 03:42:14;;;;;;;891.88;807.00;;;20.00;99.90;;;;;;4982553;28;20197;-82
2022/08/30 03:44:40;;;;;;;872.58;788.38;;;20.00;99.90;;;;;;4991824;28;20193;-82
2022/08/30 03:47:07;;;;;;;886.13;801.42;;;20.00;99.90;;;;;;4997577;28;20204;-82
2022/08/30 03:49:34;;;;;;;885.65;800.85;;;20.00;99.90;;;;;;4994250;28;20207;-82
2022/08/30 03:52:01;;;;;;;894.83;809.65;;;20.00;99.90;;;;;;4991557;28;20985;-82
2022/08/30 03:54:30;;;;;;;894.92;809.75;;;20.00;99.90;;;;;;4993258;28;20197;-83
2022/08/30 03:56:57;;;;;;;896.78;811.75;;;20.00;99.90;;;;;;4996554;28;20568;-82
2022/08/30 03:59:25;;;;;;;904.67;819.22;;;20.00;99.90;;;;;;4998321;28;20203;-82
2022/08/30 04:01:52;;;;;;;885.40;800.55;;;20.00;99.90;;;;;;4993503;28;20201;-82
2022/08/30 04:04:18;;;;;;;899.67;814.40;;;19.90;99.90;;;;;;4994168;28;20714;-82
2022/08/30 04:06:45;;;;;;;885.38;800.47;;;19.90;99.90;;;;;;4983073;28;20201;-81
2022/08/30 04:09:12;;;;;;;890.95;805.97;;;19.90;99.90;;;;;;5003457;28;20192;-81
2022/08/30 04:11:39;;;;;;;902.42;817.15;;;19.90;99.90;;;;;;5007300;28;20205;-82
2022/08/30 04:14:06;;;;;;;884.45;799.88;;;19.90;99.90;;;;;;4996083;28;20201;-82
2022/08/30 04:16:34;;;;;;;874.10;789.83;;;19.90;99.90;;;;;;4989990;28;20208;-82
2022/08/30 04:19:01;;;;;;;896.35;811.15;;;19.80;99.90;;;;;;4991635;28;20223;-82
2022/08/30 04:21:27;;;;;;;887.58;802.83;;;19.80;99.90;;;;;;4996076;28;20567;-82
2022/08/30 04:23:54;;;;;;;890.53;805.78;;;19.80;99.90;;;;;;4998385;28;20213;-82
2022/08/30 04:26:21;;;;;;;894.15;809.05;;;19.80;99.90;;;;;;4992517;28;20222;-81
2022/08/30 04:28:48;;;;;;;900.15;814.90;;;19.80;99.90;;;;;;4996002;28;20860;-81
2022/08/30 04:31:17;;;;;;;881.65;797.10;;;19.80;99.90;;;;;;4998407;28;20219;-82
2022/08/30 04:33:45;;;;;;;891.78;806.70;;;19.80;99.90;;;;;;5000537;28;20271;-82
2022/08/30 04:36:13;;;;;;;869.28;784.80;;;19.80;99.90;;;;;;4996340;28;20194;-82
2022/08/30 04:38:41;;;;;;;879.92;795.05;;;19.70;99.90;;;;;;5011565;28;20212;-82
2022/08/30 04:41:11;;;;;;;887.40;802.50;;;19.70;99.90;;;;;;5008755;28;20204;-81
2022/08/30 04:43:38;;;;;;;887.00;802.03;;;19.70;99.90;;;;;;5001571;28;20201;-81
2022/08/30 04:46:06;;;;;;;889.65;804.70;;;19.70;99.90;;;;;;4997485;28;20196;-81
2022/08/30 04:48:33;;;;;;;894.80;809.38;;;19.70;99.90;;;;;;4989267;28;20216;-82
2022/08/30 04:51:03;;;;;;;887.13;802.22;;;19.70;99.90;;;;;;4996973;28;20189;-82
2022/08/30 04:53:30;;;;;;;879.70;794.90;;;19.70;99.90;;;;;;5001475;28;20185;-81
2022/08/30 04:55:57;;;;;;;884.20;799.42;;;19.70;99.90;;;;;;5010900;28;20205;-81
2022/08/30 04:58:24;;;;;;;888.42;803.55;;;19.60;99.90;;;;;;4989762;28;20811;-81
2022/08/30 05:00:50;;;;;;;870.60;786.20;;;19.60;99.90;;;;;;4994571;28;20800;-81
2022/08/30 05:03:17;;;;;;;886.08;800.92;;;19.60;99.90;;;;;;4999297;28;20217;-81
2022/08/30 05:05:48;;;;;;;884.67;799.83;;;19.60;99.90;;;;;;4992310;28;20665;-82
2022/08/30 05:08:18;;;;;;;869.15;784.55;;;19.60;99.90;;;;;;4980426;28;20223;-82
2022/08/30 05:10:47;;;;;;;891.53;806.53;;;19.60;99.90;;;;;;4982850;28;20202;-82
2022/08/30 05:13:15;;;;;;;884.38;799.63;;;19.60;99.90;;;;;;4992803;28;20592;-83
2022/08/30 05:15:42;;;;;;;878.20;793.47;;;19.60;99.90;;;;;;4997887;28;20719;-82
2022/08/30 05:18:09;;;;;;;860.47;776.45;;;19.60;99.90;;;;;;4993477;28;20522;-82
2022/08/30 05:20:38;;;;;;;873.08;788.60;;;19.60;99.90;;;;;;4980078;28;20201;-81
2022/08/30 05:23:06;;;;;;;875.95;791.30;;;19.60;99.90;;;;;;4987450;28;20207;-81
2022/08/30 05:25:37;;;;;;;866.35;781.95;;;19.60;99.90;;;;;;4986503;28;20652;-81
2022/08/30 05:28:05;;;;;;;886.92;801.85;;;19.60;99.90;;;;;;4993960;28;20193;-81
2022/08/30 05:30:33;;;;;;;874.28;789.60;;;19.60;99.90;;;;;;4984023;28;20193;-81
2022/08/30 05:33:01;;;;;;;891.15;806.28;;;19.60;99.90;;;;;;4999916;28;20199;-82
2022/08/30 05:35:28;;;;;;;884.65;799.88;;;19.60;99.90;;;;;;4987478;28;20197;-82
2022/08/30 05:37:55;;;;;;;872.65;788.25;;;19.60;99.90;;;;;;4987234;28;20587;-81
2022/08/30 05:40:22;;;;;;;870.17;786.03;;;19.60;99.90;;;;;;4990883;28;20201;-81
2022/08/30 05:42:50;;;;;;;875.42;790.80;;;19.60;99.90;;;;;;4990437;28;20259;-83
2022/08/30 05:45:17;;;;;;;865.53;781.45;;;19.50;99.90;;;;;;4985588;28;20208;-84
2022/08/30 05:47:44;;;;;;;860.05;775.95;;;19.60;99.90;;;;;;5000244;28;20189;-83
2022/08/30 05:50:11;;;;;;;870.22;785.85;;;19.50;99.90;;;;;;4977208;28;20205;-83
2022/08/30 05:52:38;;;;;;;864.22;780.13;;;19.60;99.90;;;;;;4991528;28;20193;-83
2022/08/30 05:55:07;;;;;;;874.33;789.95;;;19.60;99.90;;;;;;4993370;28;20209;-84
2022/08/30 05:57:34;;;;;;;876.35;792.00;;;19.60;99.90;;;;;;4986408;28;20201;-84
2022/08/30 06:00:10;;;;;;;881.58;796.83;;;19.80;99.90;;;;;;4990703;28;20197;-84
2022/08/30 06:02:37;;;;;;;870.67;786.47;;;20.00;99.90;;;;;;4983102;28;20687;-83
2022/08/30 06:05:04;;;;;;;901.15;815.95;;;20.20;99.90;;;;;;4983469;28;20580;-83
2022/08/30 06:07:31;;;;;;;904.95;819.50;;;20.40;99.90;;;;;;4995577;28;20220;-82
2022/08/30 06:09:58;;;;;;;909.47;824.05;;;20.60;99.90;;;;;;4991370;28;20205;-82
2022/08/30 06:12:25;;;;;;;918.13;832.55;;;20.70;99.90;;;;;;4982071;28;20201;-84
2022/08/30 06:14:52;;;;;;;937.80;851.33;;;20.90;99.90;;;;;;4986602;28;20212;-82
2022/08/30 06:17:20;;;;;;;925.30;839.42;;;21.10;99.90;;;;;;4991741;28;20197;-82
2022/08/30 06:19:47;;;;;;;942.50;856.13;;;21.20;99.90;;;;;;4992555;28;20223;-83
2022/08/30 06:22:13;;;;;;;930.53;844.65;;;21.30;99.90;;;;;;4987568;28;20313;-83
2022/08/30 06:24:40;;;;;;;949.10;862.50;;;21.40;99.90;;;;;;4990533;28;20210;-84
2022/08/30 06:27:07;;;;;;;958.13;871.38;;;21.50;99.90;;;;;;4990979;28;20208;-83
2022/08/30 06:29:34;;;;;;;957.42;870.83;;;21.60;99.90;;;;;;4987422;28;20197;-82
2022/08/30 06:32:00;;;;;;;957.60;870.95;;;21.70;99.90;;;;;;4986700;28;20193;-82
2022/08/30 06:34:29;;;;;;;965.22;878.47;;;21.80;99.90;;;;;;4980753;28;20284;-80
2022/08/30 06:36:56;;;;;;;984.95;897.20;;;21.90;99.90;;;;;;4991721;28;20223;-83
2022/08/30 06:39:22;;;;;;;980.63;893.42;;;22.00;99.90;;;;;;5000104;28;20239;-85
2022/08/30 06:41:49;;;;;;;964.90;877.90;;;22.10;99.90;;;;;;4991495;28;20564;-84
2022/08/30 06:44:16;;;;;;;992.20;904.53;;;22.10;99.90;;;;;;4989183;28;20216;-85
2022/08/30 06:46:43;;;;;;;996.80;909.00;;;22.20;99.90;;;;;;4989353;28;20197;-85
2022/08/30 06:49:10;;;;;;;990.15;902.70;;;22.30;99.90;;;;;;4989738;28;22056;-85
2022/08/30 06:51:39;;;;;;;1008.88;920.67;;;22.40;99.90;;;;;;4991709;28;20251;-84
2022/08/30 06:54:08;;;;;;;994.97;907.25;;;22.40;99.90;;;;;;4996988;28;20275;-82
2022/08/30 06:56:34;;;;;;;1007.80;919.50;;;22.60;99.90;;;;;;4994657;28;20865;-82
2022/08/30 06:59:01;;;;;;;991.30;903.53;;;22.60;99.90;;;;;;4991357;28;20224;-83
2022/08/30 07:01:29;;;;;;;993.33;905.63;;;22.70;99.90;;;;;;4983513;28;20201;-83
2022/08/30 07:03:57;;;;;;;1000.13;912.40;;;22.70;99.90;;;;;;4986524;28;20244;-83
2022/08/30 07:06:25;;;;;;;1000.58;912.55;;;22.80;99.90;;;;;;4984041;28;20309;-83
2022/08/30 07:08:54;;;;;;;1000.33;912.42;;;22.90;99.90;;;;;;4985924;28;20568;-85
2022/08/30 07:11:32;;;;;;;1007.13;918.97;;;22.90;99.90;;;;;;4983392;28;20196;-86
2022/08/30 07:13:59;;;;;;;1013.50;925.17;;;23.00;99.90;;;;;;4987775;28;20831;-85
2022/08/30 07:16:26;;;;;;;1033.75;944.55;;;23.00;99.90;;;;;;4989178;28;20202;-85
2022/08/30 07:18:57;;;;;;;1025.00;935.83;;;23.10;99.90;;;;;;4990689;28;20258;-85
2022/08/30 07:21:26;;;;;;;1059.22;968.58;;;23.20;99.70;;;;;;4983086;28;20288;-83
2022/08/30 07:23:56;;;;;;;1044.30;954.50;;;23.30;99.50;;;;;;4987801;28;20212;-85
2022/08/30 07:26:25;;;;;;;1034.47;944.97;;;23.30;99.20;;;;;;4981041;28;20197;-87
2022/08/30 07:28:53;;;;;;;1040.57;951.20;;;23.40;99.10;;;;;;4989616;28;20200;-84
2022/08/30 07:31:20;;;;;;;1036.82;947.60;;;23.50;98.90;;;;;;4995402;28;20270;-84
2022/08/30 07:33:48;;;;;;;1037.03;947.70;;;23.60;98.70;;;;;;4991618;28;20201;-85
2022/08/30 07:36:16;;;;;;;1058.03;967.95;;;23.60;98.50;;;;;;4985521;28;20472;-85
2022/08/30 07:38:43;;;;;;;1043.95;954.53;;;23.70;98.50;;;;;;4989641;28;20901;-83
2022/08/30 07:41:16;;;;;;;1058.57;968.75;;;23.70;98.40;;;;;;4990111;28;20193;-85
2022/08/30 07:43:44;;;;;;;1043.70;954.13;;;23.70;98.40;;;;;;4985312;28;20204;-86
2022/08/30 07:46:11;;;;;;;1052.47;962.70;;;23.70;98.30;;;;;;4987322;28;20204;-86
2022/08/30 07:48:37;;;;;;;1056.47;966.33;;;23.70;98.20;;;;;;4986597;28;20204;-86
2022/08/30 07:51:08;;;;;;;1050.03;960.10;;;23.80;98.20;;;;;;4987694;28;20584;-85
2022/08/30 07:53:35;;;;;;;1066.53;976.00;;;23.80;98.20;;;;;;4976295;28;20201;-85
2022/08/30 07:56:02;;;;;;;1041.60;952.33;;;23.80;98.10;;;;;;4985608;28;20197;-83
2022/08/30 07:58:30;;;;;;;1071.85;981.28;;;23.80;98.00;;;;;;4990932;28;20684;-85
2022/08/30 08:00:58;;;;;;;1050.88;961.15;;;23.80;98.10;;;;;;4997202;28;20220;-84
2022/08/30 08:03:25;;;;;;;1057.32;967.47;;;23.80;98.00;;;;;;4989743;28;20255;-84
2022/08/30 08:05:52;;;;;;;1048.70;958.95;;;23.80;98.00;;;;;;4986894;28;20208;-83
2022/08/30 08:08:19;;;;;;;1054.15;964.55;;;23.80;98.20;;;;;;4984926;28;20271;-84
2022/08/30 08:10:46;;;;;;;1046.03;956.58;;;23.70;98.20;;;;;;4984944;28;20211;-83
2022/08/30 08:13:12;;;;;;;1059.72;969.83;;;23.70;98.10;;;;;;4987666;28;20197;-82
2022/08/30 08:15:41;;;;;;;1061.25;971.30;;;23.70;98.20;;;;;;4985315;28;20209;-85
2022/08/30 08:18:07;;;;;;;1045.95;956.63;;;23.70;98.30;;;;;;4988224;28;20967;-84
2022/08/30 08:20:34;;;;;;;1053.68;964.17;;;23.80;98.40;;;;;;4985482;28;20210;-84
2022/08/30 08:23:02;;;;;;;1047.65;958.40;;;23.80;98.30;;;;;;4992036;28;20201;-84
2022/08/30 08:25:29;;;;;;;1045.07;955.83;;;23.80;98.30;;;;;;5003972;28;20723;-83
2022/08/30 08:27:56;;;;;;;1057.55;967.55;;;23.80;98.30;;;;;;4989711;28;20664;-84
2022/08/30 08:30:23;;;;;;;1060.78;970.90;;;23.80;98.20;;;;;;4984832;28;20566;-84
2022/08/30 08:32:52;;;;;;;1059.75;969.83;;;23.80;98.30;;;;;;4990169;28;20286;-84
2022/08/30 08:35:19;;;;;;;1061.93;972.08;;;23.80;98.30;;;;;;4985516;28;20196;-84
2022/08/30 08:37:45;;;;;;;1048.13;958.67;;;23.80;98.30;;;;;;4998741;28;20204;-84
2022/08/30 08:40:15;;;;;;;1072.45;981.85;;;23.80;98.50;;;;;;4991211;28;20213;-84
2022/08/30 08:42:55;;;;;;;1063.97;973.85;;;23.80;98.50;;;;;;4990723;28;20194;-84
2022/08/30 08:45:29;;;;;;;1041.72;952.58;;;23.80;98.30;;;;;;4995723;28;20196;-84
2022/08/30 08:48:03;;;;;;;1063.70;973.72;;;23.80;98.40;;;;;;4992641;28;20231;-84
2022/08/30 08:50:30;;;;;;;1048.95;959.22;;;23.80;98.30;;;;;;4984627;28;20197;-83
2022/08/30 08:55:53;;;;;;;1053.65;964.08;;;23.80;98.50;;;;;;4991298;28;20683;-84
2022/08/30 08:58:24;;;;;;;1053.25;963.58;;;23.80;98.70;;;;;;4987351;28;20789;-83
2022/08/30 09:00:50;;;;;;;1048.93;959.33;;;23.80;98.50;;;;;;4989418;28;20205;-83
2022/08/30 09:03:22;;;;;;;1062.65;972.63;;;23.80;98.50;;;;;;4988731;28;20577;-83
2022/08/30 09:05:49;;;;;;;1058.03;968.40;;;23.80;98.50;;;;;;4992575;28;20584;-80
2022/08/30 09:08:19;;;;;;;1051.43;961.97;;;23.90;98.50;;;;;;4988968;28;20675;-84
2022/08/30 09:10:52;;;;;;;1047.63;958.38;;;23.90;98.50;;;;;;4991373;28;20205;-85
2022/08/30 09:13:19;;;;;;;1044.40;954.95;;;23.90;98.50;;;;;;4991585;28;20197;-83
2022/08/30 09:15:46;;;;;;;1068.95;978.55;;;23.80;98.40;;;;;;4993109;28;20205;-80
2022/08/30 09:18:13;;;;;;;1057.85;968.08;;;23.80;98.40;;;;;;4991132;28;20549;-83
2022/08/30 09:20:45;;;;;;;1051.75;962.20;;;23.80;98.60;;;;;;4992504;28;20217;-82
2022/08/30 09:23:27;;;;;;;1054.63;965.17;;;23.80;98.60;;;;;;4986064;28;20193;-85
2022/08/30 09:25:56;;;;;;;1044.88;954.88;;;23.80;98.70;;;;;;5001730;28;20742;-82
2022/08/30 09:28:26;;;;;;;1038.93;950.10;;;23.70;98.70;;;;;;4985809;28;20223;-84
2022/08/30 09:31:03;;;;;;;1055.43;965.85;;;23.70;98.80;;;;;;4991908;28;20205;-85
2022/08/30 09:33:30;;;;;;;1033.55;944.85;;;23.70;98.90;;;;;;4993591;28;20286;-83
2022/08/30 09:36:12;;;;;;;1049.05;959.47;;;23.70;98.90;;;;;;4986519;28;20567;-85
2022/08/30 09:38:39;;;;;;;1040.43;951.20;;;23.70;99.00;;;;;;4992183;28;20815;-85
2022/08/30 09:41:29;;;;;;;1044.07;954.90;;;23.60;99.10;;;;;;4991038;28;20277;-84
2022/08/30 09:44:08;;;;;;;1042.32;952.72;;;23.60;99.50;;;;;;4992797;28;20209;-85
2022/08/30 09:46:43;;;;;;;1063.47;973.15;;;23.50;99.20;;;;;;4990347;28;20204;-84
2022/08/30 09:49:28;;;;;;;1034.70;945.67;;;23.50;99.30;;;;;;4984772;28;20197;-85
2022/08/30 09:52:11;;;;;;;1036.95;947.85;;;23.50;99.40;;;;;;4991570;28;20200;-84
2022/08/30 09:54:45;;;;;;;1040.30;951.10;;;23.50;99.40;;;;;;4991146;28;20201;-84
2022/08/30 09:57:22;;;;;;;1045.30;955.97;;;23.50;99.50;;;;;;4983974;28;20209;-84
2022/08/30 09:59:54;;;;;;;1057.43;967.60;;;23.40;99.50;;;;;;4981809;28;20725;-82
2022/08/30 10:02:37;;;;;;;1043.03;953.45;;;23.40;99.70;;;;;;4988487;28;20197;-83
2022/08/30 10:05:12;;;;;;;1043.93;954.45;;;23.40;99.60;;;;;;4989304;28;20196;-82
2022/08/30 10:07:49;;;;;;;1043.28;953.80;;;23.40;99.60;;;;;;4986136;28;20831;-84
2022/08/30 10:10:23;;;;;;;1037.78;948.70;;;23.40;99.60;;;;;;4992308;28;20233;-83
2022/08/30 10:13:00;;;;;;;1033.97;945.05;;;23.40;99.70;;;;;;4988674;28;20207;-83
2022/08/30 10:15:32;;;;;;;1037.38;948.30;;;23.40;99.70;;;;;;4987735;28;20212;-85
2022/08/30 10:18:05;;;;;;;1043.68;954.05;;;23.40;99.90;;;;;;4996913;28;20209;-83
2022/08/30 10:20:40;;;;;;;1044.47;955.28;;;23.30;99.80;;;;;;4990760;28;20208;-84
2022/08/30 10:23:15;;;;;;;1033.40;944.60;;;23.30;99.80;;;;;;4988133;28;20196;-81
2022/08/30 10:25:47;;;;;;;1047.75;958.38;;;23.30;99.80;;;;;;4990872;28;20196;-84
2022/08/30 10:28:20;;;;;;;1025.50;936.92;;;23.30;99.90;;;;;;4990842;28;20251;-84
2022/08/30 10:30:55;;;;;;;1036.97;947.80;;;23.30;99.90;;;;;;4990283;28;20231;-83
2022/08/30 10:33:27;;;;;;;1020.03;931.80;;;23.30;99.90;;;;;;4988093;28;20196;-84
2022/08/30 10:35:57;;;;;;;1043.22;953.90;;;23.30;99.80;;;;;;4983347;28;20205;-84
2022/08/30 10:38:29;;;;;;;1031.97;943.03;;;23.30;99.60;;;;;;4991755;28;20193;-82
2022/08/30 10:41:13;;;;;;;1042.53;953.33;;;23.30;99.70;;;;;;4990943;28;20229;-84
2022/08/30 10:43:50;;;;;;;1037.10;948.13;;;23.30;99.60;;;;;;4990103;28;20212;-84
2022/08/30 10:46:24;;;;;;;1033.32;944.40;;;23.30;99.70;;;;;;4989567;28;20216;-84
2022/08/30 10:48:52;;;;;;;1040.43;951.13;;;23.30;99.70;;;;;;4988021;28;20291;-84
2022/08/30 10:51:30;;;;;;;1024.30;935.67;;;23.30;99.60;;;;;;4990069;28;20201;-82
2022/08/30 10:54:04;;;;;;;1042.40;953.20;;;23.30;99.60;;;;;;4991912;28;20279;-84
2022/08/30 10:56:31;;;;;;;1028.50;939.75;;;23.30;99.40;;;;;;4989559;28;20664;-84
2022/08/30 10:58:58;;;;;;;1036.13;947.53;;;23.30;99.40;;;;;;4989043;28;20658;-83
2022/08/30 11:01:46;;;;;;;1039.63;950.55;;;23.30;99.40;;;;;;4984280;28;20224;-83
2022/08/30 11:04:54;;;;;;;1046.00;956.72;;;23.30;99.30;;;;;;4988951;28;20231;-83
2022/08/30 11:07:32;;;;;;;1038.50;949.08;;;23.40;99.40;;;;;;4989303;28;20201;-85
2022/08/30 11:10:21;;;;;;;1025.43;936.63;;;23.30;99.00;;;;;;4989553;28;20197;-82
2022/08/30 11:12:55;;;;;;;1027.78;938.97;;;23.30;99.10;;;;;;4986946;28;20209;-84
2022/08/30 11:15:25;;;;;;;1031.97;943.00;;;23.30;99.20;;;;;;4983205;28;20204;-84
2022/08/30 11:18:00;;;;;;;1027.68;938.97;;;23.30;98.90;;;;;;4989641;28;20201;-84
2022/08/30 11:20:38;;;;;;;1009.30;921.33;;;23.30;99.00;;;;;;4981553;28;20746;-83
2022/08/30 11:23:29;;;;;;;1021.33;932.92;;;23.40;99.10;;;;;;4981259;28;20209;-83
2022/08/30 11:26:00;;;;;;;1025.53;936.90;;;23.40;99.10;;;;;;4990354;28;20201;-83
2022/08/30 11:29:06;;;;;;;1036.00;946.92;;;23.40;98.90;;;;;;4990385;28;20265;-85
2022/08/30 11:31:39;;;;;;;1026.80;938.22;;;23.40;99.00;;;;;;4980331;28;20194;-85
2022/08/30 11:34:09;;;;;;;1020.28;931.90;;;23.40;99.00;;;;;;4989310;28;20201;-83
2022/08/30 11:37:02;;;;;;;1039.35;950.05;;;23.40;98.90;;;;;;4988379;28;20209;-85
2022/08/30 11:39:52;;;;;;;1025.22;936.83;;;23.30;98.80;;;;;;4975573;28;20695;-84
2022/08/30 11:42:28;;;;;;;1012.97;925.05;;;23.40;98.80;;;;;;4984242;28;20252;-84
2022/08/30 11:45:34;;;;;;;1012.63;924.33;;;23.40;98.90;;;;;;4997369;28;20606;-84
2022/08/30 11:48:04;;;;;;;1013.00;924.83;;;23.40;98.90;;;;;;4992770;28;20200;-87
2022/08/30 11:50:35;;;;;;;1026.93;938.53;;;23.40;98.70;;;;;;4986987;28;20234;-85
2022/08/30 11:53:13;;;;;;;1019.63;931.33;;;23.40;98.60;;;;;;4997040;28;20201;-84
2022/08/30 11:56:00;;;;;;;1030.05;941.63;;;23.40;98.70;;;;;;4991807;28;20518;-84
2022/08/30 11:58:46;;;;;;;1028.70;940.03;;;23.40;98.60;;;;;;4989132;28;20683;-85
2022/08/30 12:01:19;;;;;;;1024.47;935.90;;;23.30;98.60;;;;;;4977009;28;20225;-84
2022/08/30 12:03:54;;;;;;;1029.03;940.53;;;23.30;98.70;;;;;;4988369;28;20236;-84
2022/08/30 12:06:51;;;;;;;1026.05;937.45;;;23.30;98.80;;;;;;4988624;28;20192;-85
2022/08/30 12:10:01;;;;;;;1035.47;946.65;;;23.30;98.80;;;;;;4985432;28;20696;-86
2022/08/30 12:12:54;;;;;;;1017.17;928.70;;;23.30;98.60;;;;;;4986770;28;20588;-84
2022/08/30 12:15:55;;;;;;;1025.40;937.10;;;23.30;98.70;;;;;;4996038;28;20189;-85
2022/08/30 12:18:36;;;;;;;1005.17;917.53;;;23.30;98.50;;;;;;4993150;28;20224;-84
2022/08/30 12:21:14;;;;;;;1013.20;924.95;;;23.30;98.70;;;;;;4993348;28;20248;-86
2022/08/30 12:23:48;;;;;;;1014.20;926.17;;;23.30;98.80;;;;;;4994939;28;20280;-84